Aviation Digital Data Service (ADDS)

Output produced by METARs form (0905 UTC 19 April 2019)
found at http://www.aviationweather.gov/metar/data/
 
METAR text: LERT 190800Z VRB02KT 9999 FEW012 15/12 Q1014 NOSIG
Conditions at: LERT (ROTA NAVAL STATI, ES) observed 0800 UTC 19 April 2019
Temperature: 15.0°C (59°F)
Dewpoint: 12.0°C (54°F) [RH = 82%]
Pressure (altimeter): 29.94 inches Hg (1014.0 mb)
Winds: variable direction winds at 2 MPH (2 knots; 1.0 m/s)
Visibility: 6 or more miles (10+ km)
Ceiling: at least 12,000 feet AGL
Clouds: few clouds at 1200 feet AGL
Weather: no significant weather observed at this time

METAR text: LERT 190700Z VRB02KT 9999 FEW030 12/11 Q1014 NOSIG
Conditions at: LERT (ROTA NAVAL STATI, ES) observed 0700 UTC 19 April 2019
Temperature: 12.0°C (54°F)
Dewpoint: 11.0°C (52°F) [RH = 94%]
Pressure (altimeter): 29.94 inches Hg (1014.0 mb)
Winds: variable direction winds at 2 MPH (2 knots; 1.0 m/s)
Visibility: 6 or more miles (10+ km)
Ceiling: at least 12,000 feet AGL
Clouds: few clouds at 3000 feet AGL
Weather: no significant weather observed at this time

METAR text: LERT 190600Z 07004KT CAVOK 10/10 Q1014 NOSIG
Conditions at: LERT (ROTA NAVAL STATI, ES) observed 0600 UTC 19 April 2019
Temperature: 10.0°C (50°F)
Dewpoint: 10.0°C (50°F) [RH = 100%]
Pressure (altimeter): 29.94 inches Hg (1014.0 mb)
Winds: from the ENE (70 degrees) at 5 MPH (4 knots; 2.1 m/s)
Visibility: 6 or more miles (10+ km)
Ceiling: ceiling and visibility are OK
Clouds: unknown
Weather: no significant weather observed at this time

METAR text: LERT 190500Z 08004KT CAVOK 10/10 Q1014 NOSIG
Conditions at: LERT (ROTA NAVAL STATI, ES) observed 0500 UTC 19 April 2019
Temperature: 10.0°C (50°F)
Dewpoint: 10.0°C (50°F) [RH = 100%]
Pressure (altimeter): 29.94 inches Hg (1014.0 mb)
Winds: from the E (80 degrees) at 5 MPH (4 knots; 2.1 m/s)
Visibility: 6 or more miles (10+ km)
Ceiling: ceiling and visibility are OK
Clouds: unknown
Weather: no significant weather observed at this time

METAR text: LERT 190400Z 09004KT 9999 FEW020 11/10 Q1014 NOSIG
Conditions at: LERT (ROTA NAVAL STATI, ES) observed 0400 UTC 19 April 2019
Temperature: 11.0°C (52°F)
Dewpoint: 10.0°C (50°F) [RH = 94%]
Pressure (altimeter): 29.94 inches Hg (1014.0 mb)
Winds: from the E (90 degrees) at 5 MPH (4 knots; 2.1 m/s)
Visibility: 6 or more miles (10+ km)
Ceiling: at least 12,000 feet AGL
Clouds: few clouds at 2000 feet AGL
Weather: no significant weather observed at this time

METAR text: LERT 190300Z 09003KT 9999 FEW020 12/10 Q1014 NOSIG
Conditions at: LERT (ROTA NAVAL STATI, ES) observed 0300 UTC 19 April 2019
Temperature: 12.0°C (54°F)
Dewpoint: 10.0°C (50°F) [RH = 88%]
Pressure (altimeter): 29.94 inches Hg (1014.0 mb)
Winds: from the E (90 degrees) at 3 MPH (3 knots; 1.5 m/s)
Visibility: 6 or more miles (10+ km)
Ceiling: at least 12,000 feet AGL
Clouds: few clouds at 2000 feet AGL
Weather: no significant weather observed at this time

METAR text: LERT 190200Z 00000KT 9999 FEW020 14/11 Q1014 NOSIG
Conditions at: LERT (ROTA NAVAL STATI, ES) observed 0200 UTC 19 April 2019
Temperature: 14.0°C (57°F)
Dewpoint: 11.0°C (52°F) [RH = 82%]
Pressure (altimeter): 29.94 inches Hg (1014.0 mb)
Winds: calm
Visibility: 6 or more miles (10+ km)
Ceiling: at least 12,000 feet AGL
Clouds: few clouds at 2000 feet AGL
Weather: no significant weather observed at this time

METAR text: LERT 190100Z 00000KT 9999 FEW020 14/11 Q1015 NOSIG
Conditions at: LERT (ROTA NAVAL STATI, ES) observed 0100 UTC 19 April 2019
Temperature: 14.0°C (57°F)
Dewpoint: 11.0°C (52°F) [RH = 82%]
Pressure (altimeter): 29.97 inches Hg (1015.0 mb)
Winds: calm
Visibility: 6 or more miles (10+ km)
Ceiling: at least 12,000 feet AGL
Clouds: few clouds at 2000 feet AGL
Weather: no significant weather observed at this time

METAR text: LERT 190000Z 29004KT 250V320 9999 FEW020TCU 15/11 Q1015 NOSIG
Conditions at: LERT (ROTA NAVAL STATI, ES) observed 0000 UTC 19 April 2019
Temperature: 15.0°C (59°F)
Dewpoint: 11.0°C (52°F) [RH = 77%]
Pressure (altimeter): 29.97 inches Hg (1015.0 mb)
Winds: from the WNW (290 degrees) at 5 MPH (4 knots; 2.1 m/s)
Visibility: 6 or more miles (10+ km)
Ceiling: at least 12,000 feet AGL
Clouds: few clouds at 2000 feet AGL
Weather: no significant weather observed at this time

METAR text: LERT 182300Z 27005KT 9999 FEW020TCU 15/12 Q1015 NOSIG
Conditions at: LERT (ROTA NAVAL STATI, ES) observed 2300 UTC 18 April 2019
Temperature: 15.0°C (59°F)
Dewpoint: 12.0°C (54°F) [RH = 82%]
Pressure (altimeter): 29.97 inches Hg (1015.0 mb)
Winds: from the W (270 degrees) at 6 MPH (5 knots; 2.6 m/s)
Visibility: 6 or more miles (10+ km)
Ceiling: at least 12,000 feet AGL
Clouds: few clouds at 2000 feet AGL
Weather: no significant weather observed at this time

METAR text: LERT 182200Z 29003KT 9999 SCT020TCU 15/12 Q1015 NOSIG
Conditions at: LERT (ROTA NAVAL STATI, ES) observed 2200 UTC 18 April 2019
Temperature: 15.0°C (59°F)
Dewpoint: 12.0°C (54°F) [RH = 82%]
Pressure (altimeter): 29.97 inches Hg (1015.0 mb)
Winds: from the WNW (290 degrees) at 3 MPH (3 knots; 1.5 m/s)
Visibility: 6 or more miles (10+ km)
Ceiling: at least 12,000 feet AGL
Clouds: scattered clouds at 2000 feet AGL
Weather: no significant weather observed at this time

METAR text: LERT 182100Z 28006KT 9999 FEW020TCU 15/12 Q1015 NOSIG
Conditions at: LERT (ROTA NAVAL STATI, ES) observed 2100 UTC 18 April 2019
Temperature: 15.0°C (59°F)
Dewpoint: 12.0°C (54°F) [RH = 82%]
Pressure (altimeter): 29.97 inches Hg (1015.0 mb)
Winds: from the W (280 degrees) at 7 MPH (6 knots; 3.1 m/s)
Visibility: 6 or more miles (10+ km)
Ceiling: at least 12,000 feet AGL
Clouds: few clouds at 2000 feet AGL
Weather: no significant weather observed at this time

METAR text: LERT 182000Z 29005KT 250V320 9999 SCT020TCU 16/12 Q1014 NOSIG
Conditions at: LERT (ROTA NAVAL STATI, ES) observed 2000 UTC 18 April 2019
Temperature: 16.0°C (61°F)
Dewpoint: 12.0°C (54°F) [RH = 77%]
Pressure (altimeter): 29.94 inches Hg (1014.0 mb)
Winds: from the WNW (290 degrees) at 6 MPH (5 knots; 2.6 m/s)
Visibility: 6 or more miles (10+ km)
Ceiling: at least 12,000 feet AGL
Clouds: scattered clouds at 2000 feet AGL
Weather: no significant weather observed at this time

METAR text: LERT 181900Z 28007KT 250V310 9999 BKN020TCU 16/12 Q1014 NOSIG
Conditions at: LERT (ROTA NAVAL STATI, ES) observed 1900 UTC 18 April 2019
Temperature: 16.0°C (61°F)
Dewpoint: 12.0°C (54°F) [RH = 77%]
Pressure (altimeter): 29.94 inches Hg (1014.0 mb)
Winds: from the W (280 degrees) at 8 MPH (7 knots; 3.6 m/s)
Visibility: 6 or more miles (10+ km)
Ceiling: 2000 feet AGL
Clouds: broken clouds at 2000 feet AGL
Weather: no significant weather observed at this time

METAR text: LERT 181800Z 28010KT 240V300 9999 BKN020TCU 17/12 Q1014 NOSIG
Conditions at: LERT (ROTA NAVAL STATI, ES) observed 1800 UTC 18 April 2019
Temperature: 17.0°C (63°F)
Dewpoint: 12.0°C (54°F) [RH = 72%]
Pressure (altimeter): 29.94 inches Hg (1014.0 mb)
Winds: from the W (280 degrees) at 12 MPH (10 knots; 5.1 m/s)
Visibility: 6 or more miles (10+ km)
Ceiling: 2000 feet AGL
Clouds: broken clouds at 2000 feet AGL
Weather: no significant weather observed at this time

METAR text: LERT 181700Z 26013KT 230V300 9999 BKN020TCU 18/12 Q1014 NOSIG
Conditions at: LERT (ROTA NAVAL STATI, ES) observed 1700 UTC 18 April 2019
Temperature: 18.0°C (64°F)
Dewpoint: 12.0°C (54°F) [RH = 68%]
Pressure (altimeter): 29.94 inches Hg (1014.0 mb)
Winds: from the W (260 degrees) at 15 MPH (13 knots; 6.7 m/s)
Visibility: 6 or more miles (10+ km)
Ceiling: 2000 feet AGL
Clouds: broken clouds at 2000 feet AGL
Weather: no significant weather observed at this time

METAR text: LERT 181600Z 26013KT 9999 BKN020TCU 17/12 Q1013 NOSIG
Conditions at: LERT (ROTA NAVAL STATI, ES) observed 1600 UTC 18 April 2019
Temperature: 17.0°C (63°F)
Dewpoint: 12.0°C (54°F) [RH = 72%]
Pressure (altimeter): 29.91 inches Hg (1013.0 mb)
Winds: from the W (260 degrees) at 15 MPH (13 knots; 6.7 m/s)
Visibility: 6 or more miles (10+ km)
Ceiling: 2000 feet AGL
Clouds: broken clouds at 2000 feet AGL
Weather: no significant weather observed at this time

METAR text: LERT 181500Z 26015KT 230V290 9999 FEW020TCU 18/11 Q1013 NOSIG
Conditions at: LERT (ROTA NAVAL STATI, ES) observed 1500 UTC 18 April 2019
Temperature: 18.0°C (64°F)
Dewpoint: 11.0°C (52°F) [RH = 64%]
Pressure (altimeter): 29.91 inches Hg (1013.0 mb)
Winds: from the W (260 degrees) at 17 MPH (15 knots; 7.7 m/s)
Visibility: 6 or more miles (10+ km)
Ceiling: at least 12,000 feet AGL
Clouds: few clouds at 2000 feet AGL
Weather: no significant weather observed at this time

METAR text: LERT 181400Z 25012KT 9999 FEW020TCU 17/13 Q1013 NOSIG
Conditions at: LERT (ROTA NAVAL STATI, ES) observed 1400 UTC 18 April 2019
Temperature: 17.0°C (63°F)
Dewpoint: 13.0°C (55°F) [RH = 77%]
Pressure (altimeter): 29.91 inches Hg (1013.0 mb)
Winds: from the WSW (250 degrees) at 14 MPH (12 knots; 6.2 m/s)
Visibility: 6 or more miles (10+ km)
Ceiling: at least 12,000 feet AGL
Clouds: few clouds at 2000 feet AGL
Weather: no significant weather observed at this time

METAR text: LERT 181300Z 24014KT 9999 SCT015TCU 16/13 Q1013 TEMPO 4000 SHRA
Conditions at: LERT (ROTA NAVAL STATI, ES) observed 1300 UTC 18 April 2019
Temperature: 16.0°C (61°F)
Dewpoint: 13.0°C (55°F) [RH = 82%]
Pressure (altimeter): 29.91 inches Hg (1013.0 mb)
Winds: from the WSW (240 degrees) at 16 MPH (14 knots; 7.2 m/s)
Visibility: 6 or more miles (10+ km)
Ceiling: at least 12,000 feet AGL
Clouds: scattered clouds at 1500 feet AGL
Weather: no significant weather observed at this time

METAR text: LERT 181200Z 22009KT 9999 FEW015TCU 16/12 Q1013 TEMPO 4000 SHRA
Conditions at: LERT (ROTA NAVAL STATI, ES) observed 1200 UTC 18 April 2019
Temperature: 16.0°C (61°F)
Dewpoint: 12.0°C (54°F) [RH = 77%]
Pressure (altimeter): 29.91 inches Hg (1013.0 mb)
Winds: from the SW (220 degrees) at 10 MPH (9 knots; 4.6 m/s)
Visibility: 6 or more miles (10+ km)
Ceiling: at least 12,000 feet AGL
Clouds: few clouds at 1500 feet AGL
Weather: no significant weather observed at this time

METAR text: LERT 181100Z 19008KT 9999 SCT020TCU 16/12 Q1014 TEMPO 4000 SHRA
Conditions at: LERT (ROTA NAVAL STATI, ES) observed 1100 UTC 18 April 2019
Temperature: 16.0°C (61°F)
Dewpoint: 12.0°C (54°F) [RH = 77%]
Pressure (altimeter): 29.94 inches Hg (1014.0 mb)
Winds: from the S (190 degrees) at 9 MPH (8 knots; 4.1 m/s)
Visibility: 6 or more miles (10+ km)
Ceiling: at least 12,000 feet AGL
Clouds: scattered clouds at 2000 feet AGL
Weather: no significant weather observed at this time

METAR text: LERT 181000Z 19007KT 160V220 9999 SCT015TCU 15/12 Q1014 TEMPO 4000 SHRA
Conditions at: LERT (ROTA NAVAL STATI, ES) observed 1000 UTC 18 April 2019
Temperature: 15.0°C (59°F)
Dewpoint: 12.0°C (54°F) [RH = 82%]
Pressure (altimeter): 29.94 inches Hg (1014.0 mb)
Winds: from the S (190 degrees) at 8 MPH (7 knots; 3.6 m/s)
Visibility: 6 or more miles (10+ km)
Ceiling: at least 12,000 feet AGL
Clouds: scattered clouds at 1500 feet AGL
Weather: no significant weather observed at this time

METAR text: LERT 180900Z 16006KT 110V200 9999 FEW030TCU 15/12 Q1014 TEMPO 4000 SHRA
Conditions at: LERT (ROTA NAVAL STATI, ES) observed 0900 UTC 18 April 2019
Temperature: 15.0°C (59°F)
Dewpoint: 12.0°C (54°F) [RH = 82%]
Pressure (altimeter): 29.94 inches Hg (1014.0 mb)
Winds: from the SSE (160 degrees) at 7 MPH (6 knots; 3.1 m/s)
Visibility: 6 or more miles (10+ km)
Ceiling: at least 12,000 feet AGL
Clouds: few clouds at 3000 feet AGL
Weather: no significant weather observed at this time

METAR text: LERT 180800Z 15006KT 110V170 9999 VCTS FEW030CB 13/12 Q1013 NOSIG
Conditions at: LERT (ROTA NAVAL STATI, ES) observed 0800 UTC 18 April 2019
Temperature: 13.0°C (55°F)
Dewpoint: 12.0°C (54°F) [RH = 94%]
Pressure (altimeter): 29.91 inches Hg (1013.0 mb)
Winds: from the SSE (150 degrees) at 7 MPH (6 knots; 3.1 m/s)
Visibility: 6 or more miles (10+ km)
Ceiling: at least 12,000 feet AGL
Clouds: few clouds at 3000 feet AGL
Weather: VCTS  (thunderstorm in vicinity)

METAR text: LERT 180700Z 07004KT 9999 VCTS FEW030TCU BKN055 13/12 Q1014 NOSIG
Conditions at: LERT (ROTA NAVAL STATI, ES) observed 0700 UTC 18 April 2019
Temperature: 13.0°C (55°F)
Dewpoint: 12.0°C (54°F) [RH = 94%]
Pressure (altimeter): 29.94 inches Hg (1014.0 mb)
Winds: from the ENE (70 degrees) at 5 MPH (4 knots; 2.1 m/s)
Visibility: 6 or more miles (10+ km)
Ceiling: 5500 feet AGL
Clouds: few clouds at 3000 feet AGL
broken clouds at 5500 feet AGL
Weather: VCTS  (thunderstorm in vicinity)

METAR text: LERT 180623Z 09003KT 9999 FEW030TCU BKN055 12/11 Q1014 RERA NOSIG
Conditions at: LERT (ROTA NAVAL STATI, ES) observed 0623 UTC 18 April 2019
Temperature: 12.0°C (54°F)
Dewpoint: 11.0°C (52°F) [RH = 94%]
Pressure (altimeter): 29.94 inches Hg (1014.0 mb)
Winds: from the E (90 degrees) at 3 MPH (3 knots; 1.5 m/s)
Visibility: 6 or more miles (10+ km)
Ceiling: 5500 feet AGL
Clouds: few clouds at 3000 feet AGL
broken clouds at 5500 feet AGL
Weather: no significant weather observed at this time

METAR text: LERT 180600Z 07004KT 020V110 9999 VCTS FEW024CB BKN054 12/11 Q1013 NOSIG
Conditions at: LERT (ROTA NAVAL STATI, ES) observed 0600 UTC 18 April 2019
Temperature: 12.0°C (54°F)
Dewpoint: 11.0°C (52°F) [RH = 94%]
Pressure (altimeter): 29.91 inches Hg (1013.0 mb)
Winds: from the ENE (70 degrees) at 5 MPH (4 knots; 2.1 m/s)
Visibility: 6 or more miles (10+ km)
Ceiling: 5400 feet AGL
Clouds: few clouds at 2400 feet AGL
broken clouds at 5400 feet AGL
Weather: VCTS  (thunderstorm in vicinity)

METAR text: LERT 180544Z 08005KT 9999 FEW024TCU BKN052 13/12 Q1013 NOSIG
Conditions at: LERT (ROTA NAVAL STATI, ES) observed 0544 UTC 18 April 2019
Temperature: 13.0°C (55°F)
Dewpoint: 12.0°C (54°F) [RH = 94%]
Pressure (altimeter): 29.91 inches Hg (1013.0 mb)
Winds: from the E (80 degrees) at 6 MPH (5 knots; 2.6 m/s)
Visibility: 6 or more miles (10+ km)
Ceiling: 5200 feet AGL
Clouds: few clouds at 2400 feet AGL
broken clouds at 5200 feet AGL
Weather: no significant weather observed at this time

METAR text: LERT 180500Z 00000KT 9999 RA VCTS FEW018CB BKN044 13/11 Q1012 NOSIG
Conditions at: LERT (ROTA NAVAL STATI, ES) observed 0500 UTC 18 April 2019
Temperature: 13.0°C (55°F)
Dewpoint: 11.0°C (52°F) [RH = 88%]
Pressure (altimeter): 29.88 inches Hg (1012.0 mb)
Winds: calm
Visibility: 6 or more miles (10+ km)
Ceiling: 4400 feet AGL
Clouds: few clouds at 1800 feet AGL
broken clouds at 4400 feet AGL
Weather: RA VCTS  (moderate rain, thunderstorm in vicinity)

METAR text: LERT 180423Z 29003KT 260V020 9999 FEW019 BKN041 13/11 Q1012 NOSIG
Conditions at: LERT (ROTA NAVAL STATI, ES) observed 0423 UTC 18 April 2019
Temperature: 13.0°C (55°F)
Dewpoint: 11.0°C (52°F) [RH = 88%]
Pressure (altimeter): 29.88 inches Hg (1012.0 mb)
Winds: from the WNW (290 degrees) at 3 MPH (3 knots; 1.5 m/s)
Visibility: 6 or more miles (10+ km)
Ceiling: 4100 feet AGL
Clouds: few clouds at 1900 feet AGL
broken clouds at 4100 feet AGL
Weather: no significant weather observed at this time

METAR text: LERT 180406Z 29008KT 250V330 8000 VCTS SHRA FEW017CB SCT032TCU BKN041 13/11 Q1013 NOSIG
Conditions at: LERT (ROTA NAVAL STATI, ES) observed 0406 UTC 18 April 2019
Temperature: 13.0°C (55°F)
Dewpoint: 11.0°C (52°F) [RH = 88%]
Pressure (altimeter): 29.91 inches Hg (1013.0 mb)
Winds: from the WNW (290 degrees) at 9 MPH (8 knots; 4.1 m/s)
Visibility: 5 miles ( 8 km)
Ceiling: 4100 feet AGL
Clouds: few clouds at 1700 feet AGL
scattered clouds at 3200 feet AGL
broken clouds at 4100 feet AGL
Weather: VCTS SHRA  (thunderstorm in vicinity, rain showers)

METAR text: LERT 180405Z 29008KT 240V350 8000 VCTS SHRA FEW017CB SCT032 BKN041 13/11 Q1013 NOSIG
Conditions at: LERT (ROTA NAVAL STATI, ES) observed 0405 UTC 18 April 2019
Temperature: 13.0°C (55°F)
Dewpoint: 11.0°C (52°F) [RH = 88%]
Pressure (altimeter): 29.91 inches Hg (1013.0 mb)
Winds: from the WNW (290 degrees) at 9 MPH (8 knots; 4.1 m/s)
Visibility: 5 miles ( 8 km)
Ceiling: 4100 feet AGL
Clouds: few clouds at 1700 feet AGL
scattered clouds at 3200 feet AGL
broken clouds at 4100 feet AGL
Weather: VCTS SHRA  (thunderstorm in vicinity, rain showers)

METAR text: LERT 180400Z 27010G22KT 230V310 9999 VCTS FEW017CB SCT032 BKN041 14/11 Q1013 NOSIG
Conditions at: LERT (ROTA NAVAL STATI, ES) observed 0400 UTC 18 April 2019
Temperature: 14.0°C (57°F)
Dewpoint: 11.0°C (52°F) [RH = 82%]
Pressure (altimeter): 29.91 inches Hg (1013.0 mb)
Winds: from the W (270 degrees) at 12 MPH (10 knots; 5.1 m/s)
gusting to 25 MPH (22 knots; 11.3 m/s)
Visibility: 6 or more miles (10+ km)
Ceiling: 4100 feet AGL
Clouds: few clouds at 1700 feet AGL
scattered clouds at 3200 feet AGL
broken clouds at 4100 feet AGL
Weather: VCTS  (thunderstorm in vicinity)

METAR text: LERT 180323Z VRB01KT 9999 VCTS FEW020CB SCT038 14/12 Q1013 NOSIG
Conditions at: LERT (ROTA NAVAL STATI, ES) observed 0323 UTC 18 April 2019
Temperature: 14.0°C (57°F)
Dewpoint: 12.0°C (54°F) [RH = 88%]
Pressure (altimeter): 29.91 inches Hg (1013.0 mb)
Winds: variable direction winds at 1 MPH (1 knots; 0.5 m/s)
Visibility: 6 or more miles (10+ km)
Ceiling: at least 12,000 feet AGL
Clouds: few clouds at 2000 feet AGL
scattered clouds at 3800 feet AGL
Weather: VCTS  (thunderstorm in vicinity)

METAR text: LERT 180300Z 23002KT 9999 SCT020 15/12 Q1012 NOSIG
Conditions at: LERT (ROTA NAVAL STATI, ES) observed 0300 UTC 18 April 2019
Temperature: 15.0°C (59°F)
Dewpoint: 12.0°C (54°F) [RH = 82%]
Pressure (altimeter): 29.88 inches Hg (1012.0 mb)
Winds: from the SW (230 degrees) at 2 MPH (2 knots; 1.0 m/s)
Visibility: 6 or more miles (10+ km)
Ceiling: at least 12,000 feet AGL
Clouds: scattered clouds at 2000 feet AGL
Weather: no significant weather observed at this time

METAR text: LERT 180200Z 26001KT 9999 BKN021 15/12 Q1013 NOSIG
Conditions at: LERT (ROTA NAVAL STATI, ES) observed 0200 UTC 18 April 2019
Temperature: 15.0°C (59°F)
Dewpoint: 12.0°C (54°F) [RH = 82%]
Pressure (altimeter): 29.91 inches Hg (1013.0 mb)
Winds: from the W (260 degrees) at 1 MPH (1 knots; 0.5 m/s)
Visibility: 6 or more miles (10+ km)
Ceiling: 2100 feet AGL
Clouds: broken clouds at 2100 feet AGL
Weather: no significant weather observed at this time

METAR text: LERT 180100Z 26005KT 230V290 9999 SCT020 15/12 Q1013 NOSIG
Conditions at: LERT (ROTA NAVAL STATI, ES) observed 0100 UTC 18 April 2019
Temperature: 15.0°C (59°F)
Dewpoint: 12.0°C (54°F) [RH = 82%]
Pressure (altimeter): 29.91 inches Hg (1013.0 mb)
Winds: from the W (260 degrees) at 6 MPH (5 knots; 2.6 m/s)
Visibility: 6 or more miles (10+ km)
Ceiling: at least 12,000 feet AGL
Clouds: scattered clouds at 2000 feet AGL
Weather: no significant weather observed at this time

METAR text: LERT 180000Z 25006KT 9999 SCT021 15/12 Q1014 NOSIG
Conditions at: LERT (ROTA NAVAL STATI, ES) observed 0000 UTC 18 April 2019
Temperature: 15.0°C (59°F)
Dewpoint: 12.0°C (54°F) [RH = 82%]
Pressure (altimeter): 29.94 inches Hg (1014.0 mb)
Winds: from the WSW (250 degrees) at 7 MPH (6 knots; 3.1 m/s)
Visibility: 6 or more miles (10+ km)
Ceiling: at least 12,000 feet AGL
Clouds: scattered clouds at 2100 feet AGL
Weather: no significant weather observed at this time

METAR text: LERT 172300Z 25007KT 9999 SCT045 16/12 Q1014 NOSIG
Conditions at: LERT (ROTA NAVAL STATI, ES) observed 2300 UTC 17 April 2019
Temperature: 16.0°C (61°F)
Dewpoint: 12.0°C (54°F) [RH = 77%]
Pressure (altimeter): 29.94 inches Hg (1014.0 mb)
Winds: from the WSW (250 degrees) at 8 MPH (7 knots; 3.6 m/s)
Visibility: 6 or more miles (10+ km)
Ceiling: at least 12,000 feet AGL
Clouds: scattered clouds at 4500 feet AGL
Weather: no significant weather observed at this time

METAR text: LERT 172200Z 22010KT 9999 SCT038 BKN054 17/11 Q1014 NOSIG
Conditions at: LERT (ROTA NAVAL STATI, ES) observed 2200 UTC 17 April 2019
Temperature: 17.0°C (63°F)
Dewpoint: 11.0°C (52°F) [RH = 68%]
Pressure (altimeter): 29.94 inches Hg (1014.0 mb)
Winds: from the SW (220 degrees) at 12 MPH (10 knots; 5.1 m/s)
Visibility: 6 or more miles (10+ km)
Ceiling: 5400 feet AGL
Clouds: scattered clouds at 3800 feet AGL
broken clouds at 5400 feet AGL
Weather: no significant weather observed at this time

Forecast for: LERT (ROTA NAVAL STATI, ES)
Text: TAF LERT 190800Z 1909/1918 30007KT 9999 FEW020 SCT045
Forecast period: 0900 to 1800 UTC 19 April 2019
Forecast type: FROM: standard forecast or significant change
Winds: from the WNW (300 degrees) at 8 MPH (7 knots; 3.6 m/s)
Visibility: 6 or more miles 10+ km)
Ceiling: at least 12,000 feet AGL
Clouds: few clouds at 2000 feet AGL
scattered clouds at 4500 feet AGL
Weather: no significant weather forecast for this period
Text: PROB30
Forecast period: 1200 to 1500 UTC 19 April 2019
Forecast type: TEMPORARY: The following changes expected for less than half the time period
Visibility: 2.49 miles (4.01 km)
Ceiling: 3500 feet AGL
Clouds: few clouds at 2000 feet AGL
broken clouds at 3500 feet AGL
Weather: SHRA  (rain showers)